createdAt,value
2019-04-04T00:02:02.210Z,5.63
2019-04-04T00:04:31.058Z,5.15
2019-04-04T00:07:00.213Z,6.13
2019-04-04T00:09:31.159Z,5.78
2019-04-04T00:12:00.179Z,5.83
2019-04-04T00:14:29.051Z,7.33
2019-04-04T00:16:58.259Z,6.10
2019-04-04T00:19:27.912Z,6.15
2019-04-04T00:21:58.006Z,7.17
2019-04-04T00:24:27.291Z,5.92
2019-04-04T00:26:56.467Z,6.20
2019-04-04T00:29:25.384Z,5.10
2019-04-04T00:31:54.609Z,6.40
2019-04-04T00:34:27.638Z,5.30
2019-04-04T00:36:55.439Z,7.23
2019-04-04T00:39:24.352Z,6.70
2019-04-04T00:41:53.561Z,7.17
2019-04-04T00:44:23.085Z,6.17
2019-04-04T00:46:52.638Z,5.90
2019-04-04T00:49:21.694Z,6.55
2019-04-04T00:51:50.658Z,6.25
2019-04-04T00:54:19.583Z,6.85
2019-04-04T00:56:48.731Z,6.80
2019-04-04T00:59:17.919Z,7.17
2019-04-04T01:01:46.824Z,7.40
2019-04-04T01:04:15.726Z,6.92
2019-04-04T01:06:44.728Z,8.07
2019-04-04T01:09:13.896Z,8.18
2019-04-04T01:11:43.124Z,7.00
2019-04-04T01:14:12.187Z,6.97
2019-04-04T01:16:41.154Z,8.77
2019-04-04T01:19:10.447Z,6.75
2019-04-04T01:21:39.850Z,8.18
2019-04-04T01:24:08.807Z,6.35
2019-04-04T01:26:37.741Z,7.00
2019-04-04T01:29:10.228Z,7.70
2019-04-04T01:31:37.454Z,8.25
2019-04-04T01:34:06.887Z,6.40
2019-04-04T01:36:35.836Z,7.62
2019-04-04T01:39:06.480Z,7.22
2019-04-04T01:41:36.281Z,6.30
2019-04-04T01:44:05.975Z,6.90
2019-04-04T01:46:35.031Z,6.90
2019-04-04T01:49:04.308Z,7.12
2019-04-04T01:51:33.323Z,6.47
2019-04-04T01:54:02.722Z,8.33
2019-04-04T01:56:31.561Z,6.90
2019-04-04T01:59:00.456Z,5.83
2019-04-04T02:01:29.416Z,5.78
2019-04-04T02:03:58.271Z,5.78
2019-04-04T02:06:28.699Z,6.70
2019-04-04T02:08:58.107Z,5.70
2019-04-04T02:11:26.910Z,5.42
2019-04-04T02:13:56.027Z,5.90
2019-04-04T02:16:25.269Z,7.30
2019-04-04T02:18:54.437Z,5.05
2019-04-04T02:21:23.526Z,6.62
2019-04-04T02:23:52.366Z,5.05
2019-04-04T02:26:21.308Z,6.80
2019-04-04T02:28:50.491Z,6.15
2019-04-04T02:31:21.153Z,6.67
2019-04-04T02:33:50.597Z,5.55
2019-04-04T02:36:19.626Z,5.72
2019-04-04T02:39:05.550Z,5.00
2019-04-04T02:41:35.192Z,4.87
2019-04-04T02:44:04.409Z,5.10
2019-04-04T02:46:33.425Z,5.25
2019-04-04T02:49:02.326Z,5.83
2019-04-04T02:51:31.341Z,6.30
2019-04-04T02:54:00.656Z,5.97
2019-04-04T02:56:30.003Z,8.90
2019-04-04T02:58:59.365Z,6.87
2019-04-04T03:01:31.805Z,6.72
2019-04-04T03:03:59.606Z,6.78
2019-04-04T03:06:28.575Z,6.95
2019-04-04T03:08:57.616Z,5.60
2019-04-04T03:11:26.571Z,6.45
2019-04-04T03:13:55.596Z,5.67
2019-04-04T03:16:25.057Z,7.47
2019-04-04T03:18:54.209Z,7.40
2019-04-04T03:21:23.849Z,7.50
2019-04-04T03:23:52.863Z,7.65
2019-04-04T03:26:21.881Z,7.50
2019-04-04T03:28:51.151Z,5.90
2019-04-04T03:31:20.498Z,6.12
2019-04-04T03:33:49.580Z,7.03
2019-04-04T03:36:18.603Z,6.75
2019-04-04T03:38:47.527Z,6.40
2019-04-04T03:41:16.494Z,7.50
2019-04-04T03:43:48.111Z,7.05
2019-04-04T03:46:16.096Z,5.45
2019-04-04T03:48:45.056Z,6.03
2019-04-04T03:51:14.035Z,6.28
2019-04-04T03:53:49.261Z,6.85
2019-04-04T03:56:18.952Z,7.37
2019-04-04T03:58:47.905Z,5.92
2019-04-04T04:01:16.750Z,5.75
2019-04-04T04:03:45.679Z,6.35
2019-04-04T04:06:14.688Z,7.22
2019-04-04T04:08:43.849Z,6.10
2019-04-04T04:11:12.772Z,6.92
2019-04-04T04:13:41.678Z,6.50
2019-04-04T04:16:10.618Z,6.45
2019-04-04T04:18:39.553Z,5.22
2019-04-04T04:21:10.896Z,5.45
2019-04-04T04:23:39.126Z,6.12
2019-04-04T04:26:09.327Z,6.53
2019-04-04T04:28:38.672Z,6.15
2019-04-04T04:31:07.710Z,6.10
2019-04-04T04:33:36.595Z,8.88
2019-04-04T04:36:09.308Z,6.17
2019-04-04T04:38:36.065Z,6.60
2019-04-04T04:41:04.915Z,5.22
2019-04-04T04:43:34.374Z,6.00
2019-04-04T04:46:03.368Z,7.80
2019-04-04T04:48:32.469Z,6.05
2019-04-04T04:51:01.462Z,5.67
2019-04-04T04:53:30.266Z,6.42
2019-04-04T04:56:00.552Z,6.72
2019-04-04T04:58:30.171Z,6.60
2019-04-04T05:00:59.066Z,6.47
2019-04-04T05:03:28.025Z,6.70
2019-04-04T05:05:57.079Z,5.70
2019-04-04T05:08:25.884Z,6.75
2019-04-04T05:10:54.813Z,6.72
2019-04-04T05:13:25.018Z,5.92
2019-04-04T05:15:54.817Z,6.00
2019-04-04T05:18:23.781Z,6.17
2019-04-04T05:20:52.734Z,5.58
2019-04-04T05:23:21.574Z,7.10
2019-04-04T05:25:54.006Z,8.58
2019-04-04T05:28:21.197Z,6.60
2019-04-04T05:30:50.122Z,7.37
2019-04-04T05:33:19.163Z,7.42
2019-04-04T05:35:48.358Z,7.12
2019-04-04T05:38:17.818Z,8.00
2019-04-04T05:40:47.163Z,6.30
2019-04-04T05:43:16.148Z,6.47
2019-04-04T05:45:45.865Z,6.35
2019-04-04T05:48:14.923Z,7.83
2019-04-04T05:50:44.351Z,5.40
2019-04-04T05:53:13.330Z,6.45
2019-04-04T05:55:42.488Z,5.62
2019-04-04T05:58:11.623Z,6.55
2019-04-04T06:00:42.106Z,5.30
2019-04-04T06:03:14.852Z,6.08
2019-04-04T06:05:42.300Z,6.33
2019-04-04T06:08:11.141Z,6.65
2019-04-04T06:10:40.113Z,7.07
2019-04-04T06:13:09.014Z,7.35
2019-04-04T06:15:38.037Z,8.20
2019-04-04T06:18:06.994Z,8.20
2019-04-04T06:20:36.286Z,6.57
2019-04-04T06:23:05.280Z,6.58
2019-04-04T06:25:35.673Z,9.70
2019-04-04T06:28:04.812Z,7.50
2019-04-04T06:30:43.120Z,9.28
2019-04-04T06:33:05.125Z,9.13
2019-04-04T06:35:34.305Z,7.20
2019-04-04T06:38:03.343Z,7.90
2019-04-04T06:40:32.329Z,9.53
2019-04-04T06:43:03.859Z,7.25
2019-04-04T06:45:33.314Z,8.50
2019-04-04T06:48:02.321Z,7.67
2019-04-04T06:50:31.650Z,7.80
2019-04-04T06:53:00.556Z,8.83
2019-04-04T06:55:29.627Z,8.23
2019-04-04T06:57:58.923Z,8.18
2019-04-04T07:00:27.923Z,8.60
2019-04-04T07:02:57.174Z,8.33
2019-04-04T07:05:26.362Z,7.17
2019-04-04T07:07:55.187Z,7.53
2019-04-04T07:10:24.414Z,6.37
2019-04-04T07:13:09.279Z,6.28
2019-04-04T07:15:24.288Z,7.00
2019-04-04T07:17:53.318Z,6.50
2019-04-04T07:20:22.202Z,7.47
2019-04-04T07:22:51.131Z,6.03
2019-04-04T07:25:21.355Z,6.65
2019-04-04T07:27:50.445Z,7.03
2019-04-04T07:30:19.419Z,6.87
2019-04-04T07:32:48.583Z,7.28
2019-04-04T07:35:20.910Z,7.40
2019-04-04T07:37:48.526Z,5.65
2019-04-04T07:40:20.146Z,6.53
2019-04-04T07:42:48.539Z,6.28
2019-04-04T07:45:17.698Z,7.08
2019-04-04T07:47:47.687Z,5.53
2019-04-04T07:50:16.746Z,6.90
2019-04-04T07:52:45.627Z,7.95
2019-04-04T07:55:14.662Z,6.50
2019-04-04T07:57:43.735Z,7.03
2019-04-04T08:00:13.244Z,7.00
2019-04-04T08:02:42.190Z,6.40
2019-04-04T08:05:13.138Z,6.55
2019-04-04T08:07:41.835Z,6.58
2019-04-04T08:10:20.340Z,6.87
2019-04-04T08:12:42.010Z,6.37
2019-04-04T08:15:11.350Z,5.83
2019-04-04T08:17:40.199Z,8.33
2019-04-04T08:20:09.151Z,7.25
2019-04-04T08:22:39.720Z,6.53
2019-04-04T08:25:08.967Z,5.83
2019-04-04T08:27:37.983Z,7.00
2019-04-04T08:30:07.803Z,5.92
2019-04-04T08:32:37.385Z,6.97
2019-04-04T08:35:06.585Z,7.28
2019-04-04T08:37:35.554Z,5.85
2019-04-04T08:40:05.206Z,6.30
2019-04-04T08:42:34.155Z,7.00
2019-04-04T08:45:03.111Z,6.37
2019-04-04T08:47:32.270Z,6.40
2019-04-04T08:50:01.475Z,6.87
2019-04-04T08:52:30.698Z,6.27
2019-04-04T08:54:59.855Z,5.67
2019-04-04T08:57:29.264Z,6.20
2019-04-04T08:59:58.566Z,6.92
2019-04-04T09:02:27.485Z,6.13
2019-04-04T09:04:56.325Z,6.40
2019-04-04T09:07:25.543Z,6.27
2019-04-04T09:09:54.874Z,6.10
2019-04-04T09:12:24.080Z,6.93
2019-04-04T09:14:53.401Z,5.33
2019-04-04T09:17:22.251Z,6.10
2019-04-04T09:19:51.260Z,6.00
2019-04-04T09:22:20.196Z,5.70
2019-04-04T09:24:49.119Z,5.03
2019-04-04T09:27:18.136Z,5.67
2019-04-04T09:29:47.424Z,5.90
2019-04-04T09:32:16.707Z,5.37
2019-04-04T09:34:46.294Z,5.60
2019-04-04T09:37:15.239Z,5.77
2019-04-04T09:39:44.083Z,5.70
2019-04-04T09:42:12.956Z,6.23
2019-04-04T09:44:42.200Z,5.60
2019-04-04T09:47:11.098Z,6.00
2019-04-04T09:49:40.767Z,5.45
2019-04-04T09:52:09.579Z,5.30
2019-04-04T09:54:38.807Z,5.62
2019-04-04T09:57:07.760Z,6.37
2019-04-04T09:59:36.713Z,6.33
2019-04-04T10:02:05.772Z,6.70
2019-04-04T10:04:34.682Z,5.95
2019-04-04T10:07:03.721Z,5.25
2019-04-04T10:09:32.771Z,7.12
2019-04-04T10:12:02.095Z,5.60
2019-04-04T10:14:31.444Z,6.28
2019-04-04T10:17:00.927Z,6.10
2019-04-04T10:19:29.853Z,5.83
2019-04-04T10:21:58.758Z,5.60
2019-04-04T10:24:27.783Z,6.08
2019-04-04T10:26:57.159Z,6.70
2019-04-04T10:29:26.000Z,7.80
2019-04-04T10:31:54.850Z,5.70
2019-04-04T10:34:23.835Z,7.65
2019-04-04T10:36:52.884Z,7.28
2019-04-04T10:39:28.817Z,7.30
2019-04-04T10:41:52.423Z,6.17
2019-04-04T10:44:21.503Z,6.87
2019-04-04T10:46:50.536Z,7.22
2019-04-04T10:49:19.351Z,5.92
2019-04-04T10:51:48.268Z,5.87
2019-04-04T10:54:17.338Z,6.17
2019-04-04T10:56:46.266Z,5.23
2019-04-04T10:59:15.126Z,7.20
2019-04-04T11:01:44.165Z,4.93
2019-04-04T11:04:13.071Z,5.60
2019-04-04T11:06:42.276Z,4.93
2019-04-04T11:09:11.290Z,5.10
2019-04-04T11:11:40.226Z,5.97
2019-04-04T11:14:09.202Z,4.80
2019-04-04T11:16:38.164Z,4.35
2019-04-04T11:19:09.623Z,4.70
2019-04-04T11:21:37.901Z,4.33
2019-04-04T11:24:07.139Z,4.75
2019-04-04T11:26:36.171Z,6.53
2019-04-04T11:29:05.183Z,4.53
2019-04-04T11:31:34.163Z,4.15
2019-04-04T11:34:03.190Z,4.85
2019-04-04T11:36:32.739Z,3.93
2019-04-04T11:39:02.018Z,4.22
2019-04-04T11:41:31.060Z,4.00
2019-04-04T11:43:59.963Z,4.45
2019-04-04T11:46:28.872Z,3.80
2019-04-04T11:48:57.729Z,3.08
2019-04-04T11:51:26.731Z,3.53
2019-04-04T11:53:55.562Z,3.80
2019-04-04T11:56:24.682Z,5.83
2019-04-04T11:58:53.779Z,4.28
2019-04-04T12:01:23.600Z,3.83
2019-04-04T12:03:52.443Z,3.95
2019-04-04T12:06:21.499Z,3.90
2019-04-04T12:08:50.530Z,2.87
2019-04-04T12:11:22.375Z,2.60
2019-04-04T12:13:50.599Z,2.83
2019-04-04T12:16:20.224Z,3.50
2019-04-04T12:18:49.576Z,3.10
2019-04-04T12:21:18.627Z,2.47
2019-04-04T12:23:47.912Z,2.83
2019-04-04T12:26:16.822Z,2.50
2019-04-04T12:28:46.164Z,2.20
2019-04-04T12:31:15.209Z,2.77
2019-04-04T12:33:44.055Z,3.15
2019-04-04T12:36:24.108Z,2.87
2019-04-04T12:38:43.920Z,2.60
2019-04-04T12:41:12.938Z,3.50
2019-04-04T12:43:41.898Z,1.85
2019-04-04T12:46:10.771Z,2.50
2019-04-04T12:48:39.882Z,1.75
2019-04-04T12:51:08.762Z,2.03
2019-04-04T12:53:37.618Z,1.82
2019-04-04T12:56:06.648Z,1.70
2019-04-04T12:58:35.671Z,1.45
2019-04-04T13:01:04.695Z,2.00
2019-04-04T13:03:33.553Z,2.80
2019-04-04T13:06:02.586Z,1.70
2019-04-04T13:08:31.541Z,1.95
2019-04-04T13:11:00.818Z,2.62
2019-04-04T13:13:29.960Z,2.00
2019-04-04T13:15:58.918Z,1.95
2019-04-04T13:18:27.727Z,2.30
2019-04-04T13:20:56.790Z,2.83
2019-04-04T13:23:25.712Z,1.90
2019-04-04T13:25:54.527Z,2.17
2019-04-04T13:28:23.574Z,2.65
2019-04-04T13:30:52.877Z,2.15
2019-04-04T13:33:22.652Z,2.35
2019-04-04T13:35:51.979Z,3.43
2019-04-04T13:38:20.857Z,2.95
2019-04-04T13:40:49.860Z,2.30
2019-04-04T13:43:20.338Z,2.40
2019-04-04T13:45:49.502Z,2.77
2019-04-04T13:48:18.512Z,3.20
2019-04-04T13:50:47.887Z,2.60
2019-04-04T13:53:16.816Z,2.90
2019-04-04T13:55:45.887Z,2.83
2019-04-04T13:58:17.428Z,2.55
2019-04-04T14:00:45.656Z,3.10
2019-04-04T14:03:14.639Z,4.03
2019-04-04T14:05:43.869Z,3.23
2019-04-04T14:08:14.389Z,3.30
2019-04-04T14:10:43.416Z,3.27
2019-04-04T14:13:14.485Z,3.00
2019-04-04T14:15:43.345Z,2.77
2019-04-04T14:18:38.062Z,3.85
2019-04-04T14:21:03.534Z,3.03
2019-04-04T14:23:26.744Z,3.27
2019-04-04T14:25:55.790Z,2.97
2019-04-04T14:28:28.128Z,2.77
2019-04-04T14:30:55.583Z,3.42
2019-04-04T14:33:24.935Z,3.00
2019-04-04T14:35:53.875Z,3.10
2019-04-04T14:38:22.843Z,3.77
2019-04-04T14:40:51.863Z,3.20
2019-04-04T14:43:21.046Z,3.37
2019-04-04T14:45:50.283Z,3.43
2019-04-04T14:48:19.882Z,3.12
2019-04-04T14:50:48.912Z,2.80
2019-04-04T14:53:17.876Z,2.70
2019-04-04T14:55:46.740Z,3.43
2019-04-04T14:58:15.768Z,3.45
2019-04-04T15:00:44.799Z,3.30
2019-04-04T15:03:14.006Z,2.85
2019-04-04T15:05:42.940Z,4.13
2019-04-04T15:08:12.023Z,3.52
2019-04-04T15:10:40.855Z,2.80
2019-04-04T15:13:09.956Z,3.27
2019-04-04T15:15:42.606Z,3.27
2019-04-04T15:18:11.900Z,3.83
2019-04-04T15:20:41.046Z,2.83
2019-04-04T15:23:10.007Z,3.02
2019-04-04T15:25:38.818Z,3.17
2019-04-04T15:28:07.791Z,3.15
2019-04-04T15:30:36.695Z,3.17
2019-04-04T15:33:05.677Z,4.17
2019-04-04T15:35:34.965Z,3.47
2019-04-04T15:38:03.977Z,4.13
2019-04-04T15:40:33.015Z,3.60
2019-04-04T15:43:01.882Z,3.55
2019-04-04T15:45:30.837Z,4.05
2019-04-04T15:47:59.684Z,3.87
2019-04-04T15:50:28.591Z,3.30
2019-04-04T15:52:57.526Z,3.47
2019-04-04T15:55:27.026Z,3.35
2019-04-04T15:57:56.634Z,3.85
2019-04-04T16:00:25.938Z,2.87
2019-04-04T16:02:54.854Z,3.10
2019-04-04T16:05:23.991Z,3.52
2019-04-04T16:07:52.878Z,3.45
2019-04-04T16:10:21.671Z,3.45
2019-04-04T16:12:50.744Z,3.45
2019-04-04T16:15:19.643Z,3.12
2019-04-04T16:17:48.583Z,3.75
2019-04-04T16:20:18.089Z,3.42
2019-04-04T16:22:47.039Z,3.20
2019-04-04T16:25:16.070Z,3.10
2019-04-04T16:27:44.995Z,3.98
2019-04-04T16:30:14.161Z,3.55
2019-04-04T16:32:43.810Z,3.00
2019-04-04T16:35:12.859Z,2.62
2019-04-04T16:37:41.684Z,2.58
2019-04-04T16:40:10.991Z,2.50
2019-04-04T16:42:40.179Z,3.33
2019-04-04T16:45:09.510Z,3.17
2019-04-04T16:47:38.543Z,2.47
2019-04-04T16:50:09.024Z,3.22
2019-04-04T16:52:38.038Z,2.85
2019-04-04T16:55:08.239Z,3.42
2019-04-04T16:57:37.449Z,2.52
2019-04-04T17:00:07.104Z,2.70
2019-04-04T17:02:36.407Z,2.52
2019-04-04T17:05:05.895Z,2.77
2019-04-04T17:07:34.827Z,3.12
2019-04-04T17:10:04.156Z,2.98
2019-04-04T17:12:33.402Z,2.72
2019-04-04T17:15:02.375Z,2.92
2019-04-04T17:17:31.215Z,2.67
2019-04-04T17:20:00.286Z,2.90
2019-04-04T17:22:29.419Z,2.70
2019-04-04T17:24:58.415Z,2.52
2019-04-04T17:27:27.664Z,2.60
2019-04-04T17:29:57.266Z,3.08
2019-04-04T17:32:26.299Z,2.60
2019-04-04T17:34:56.182Z,2.60
2019-04-04T17:37:25.339Z,2.77
2019-04-04T17:39:54.607Z,3.55
2019-04-04T17:42:30.321Z,2.63
2019-04-04T17:44:54.869Z,3.00
2019-04-04T17:47:24.035Z,3.03
2019-04-04T17:49:53.655Z,3.42
2019-04-04T17:52:22.831Z,3.80
2019-04-04T17:54:52.187Z,3.50
2019-04-04T17:57:21.734Z,3.47
2019-04-04T17:59:50.640Z,4.10
2019-04-04T18:02:19.463Z,4.23
2019-04-04T18:04:48.840Z,3.98
2019-04-04T18:07:18.191Z,4.27
2019-04-04T18:09:47.294Z,3.52
2019-04-04T18:12:16.990Z,3.67
2019-04-04T18:14:46.123Z,4.12
2019-04-04T18:17:14.941Z,4.07
2019-04-04T18:19:43.847Z,4.05
2019-04-04T18:22:12.955Z,3.47
2019-04-04T18:24:42.415Z,4.15
2019-04-04T18:27:11.316Z,3.83
2019-04-04T18:29:40.358Z,3.87
2019-04-04T18:32:09.475Z,3.90
2019-04-04T18:34:38.859Z,6.25
2019-04-04T18:37:08.021Z,6.67
2019-04-04T18:39:37.075Z,5.25
2019-04-04T18:42:06.217Z,4.43
2019-04-04T18:44:35.114Z,4.55
2019-04-04T18:47:04.010Z,4.40
2019-04-04T18:49:32.913Z,4.78
2019-04-04T18:52:02.181Z,5.27
2019-04-04T18:54:31.039Z,5.12
2019-04-04T18:57:00.264Z,5.20
2019-04-04T18:59:29.609Z,6.10
2019-04-04T19:01:58.924Z,4.77
2019-04-04T19:04:27.857Z,4.80
2019-04-04T19:06:57.064Z,4.57
2019-04-04T19:09:26.015Z,4.67
2019-04-04T19:11:54.846Z,5.07
2019-04-04T19:14:24.202Z,4.95
2019-04-04T19:16:53.816Z,4.67
2019-04-04T19:19:22.799Z,6.10
2019-04-04T19:21:51.916Z,5.55
2019-04-04T19:24:20.927Z,5.05
2019-04-04T19:26:49.978Z,5.97
2019-04-04T19:29:19.296Z,5.62
2019-04-04T19:31:48.939Z,5.03
2019-04-04T19:34:17.850Z,5.72
2019-04-04T19:36:46.775Z,6.03
2019-04-04T19:39:17.633Z,6.60
2019-04-04T19:41:46.681Z,6.33
2019-04-04T19:44:15.695Z,5.28
2019-04-04T19:46:44.707Z,6.80
2019-04-04T19:49:13.719Z,7.42
2019-04-04T19:51:43.005Z,6.87
2019-04-04T19:54:12.299Z,6.92
2019-04-04T19:56:41.312Z,6.93
2019-04-04T19:59:10.491Z,5.92
2019-04-04T20:01:39.390Z,5.47
2019-04-04T20:04:08.819Z,6.35
2019-04-04T20:06:38.077Z,6.90
2019-04-04T20:09:07.759Z,7.62
2019-04-04T20:11:36.969Z,7.23
2019-04-04T20:14:05.886Z,6.10
2019-04-04T20:16:34.975Z,9.90
2019-04-04T20:19:04.007Z,13.15
2019-04-04T20:21:32.902Z,14.70
2019-04-04T20:24:02.043Z,12.93
2019-04-04T20:26:30.885Z,8.53
2019-04-04T20:28:59.734Z,8.08
2019-04-04T20:31:28.791Z,6.60
2019-04-04T20:34:02.352Z,7.45
2019-04-04T20:36:28.361Z,6.40
2019-04-04T20:38:57.424Z,6.85
2019-04-04T20:41:26.596Z,7.40
2019-04-04T20:43:55.477Z,6.50
2019-04-04T20:46:24.451Z,7.83
2019-04-04T20:48:53.528Z,6.60
2019-04-04T20:51:22.961Z,6.00
2019-04-04T20:53:51.934Z,7.85
2019-04-04T20:56:21.060Z,6.27
2019-04-04T20:58:50.103Z,6.17
2019-04-04T21:01:19.067Z,5.83
2019-04-04T21:03:48.050Z,5.53
2019-04-04T21:06:16.869Z,7.27
2019-04-04T21:08:45.807Z,6.75
2019-04-04T21:11:14.841Z,6.13
2019-04-04T21:13:55.549Z,8.90
2019-04-04T21:16:14.675Z,8.23
2019-04-04T21:18:43.858Z,6.53
2019-04-04T21:21:13.159Z,7.20
2019-04-04T21:23:42.031Z,7.92
2019-04-04T21:26:11.276Z,11.37
2019-04-04T21:28:40.214Z,11.35
2019-04-04T21:31:09.142Z,7.20
2019-04-04T21:33:37.996Z,7.40
2019-04-04T21:36:07.008Z,7.30
2019-04-04T21:38:35.840Z,6.72
2019-04-04T21:41:04.779Z,6.53
2019-04-04T21:43:33.683Z,5.92
2019-04-04T21:46:02.763Z,7.27
2019-04-04T21:48:32.127Z,5.97
2019-04-04T21:51:01.047Z,7.07
2019-04-04T21:53:29.935Z,6.62
2019-04-04T21:55:58.871Z,7.17
2019-04-04T21:58:27.745Z,7.28
2019-04-04T22:00:57.443Z,8.83
2019-04-04T22:03:27.719Z,7.95
2019-04-04T22:05:56.715Z,5.80
2019-04-04T22:08:26.087Z,7.85
2019-04-04T22:10:55.364Z,6.00
2019-04-04T22:13:24.407Z,6.20
2019-04-04T22:15:54.171Z,6.30
2019-04-04T22:18:23.551Z,5.87
2019-04-04T22:20:52.952Z,5.03
2019-04-04T22:23:21.952Z,6.67
2019-04-04T22:25:50.980Z,5.30
2019-04-04T22:28:20.317Z,6.87
2019-04-04T22:30:49.359Z,6.70
2019-04-04T22:33:18.815Z,5.80
2019-04-04T22:35:48.061Z,6.37
2019-04-04T22:38:16.903Z,6.22
2019-04-04T22:40:45.868Z,5.73
2019-04-04T22:43:14.779Z,5.72
2019-04-04T22:45:43.855Z,6.20
2019-04-04T22:48:12.796Z,6.30
2019-04-04T22:50:42.495Z,5.90
2019-04-04T22:53:11.440Z,6.37
2019-04-04T22:55:40.743Z,6.28
2019-04-04T22:58:09.755Z,6.85
2019-04-04T23:00:39.182Z,5.20
2019-04-04T23:03:08.237Z,6.78
2019-04-04T23:05:37.114Z,6.83
2019-04-04T23:08:07.581Z,6.50
2019-04-04T23:10:36.680Z,6.50
2019-04-04T23:13:06.399Z,5.58
2019-04-04T23:15:35.602Z,5.60
2019-04-04T23:18:04.586Z,7.05
2019-04-04T23:20:33.870Z,5.73
2019-04-04T23:23:02.922Z,6.58
2019-04-04T23:25:32.186Z,6.80
2019-04-04T23:28:01.040Z,6.17
2019-04-04T23:30:29.899Z,6.50
2019-04-04T23:32:59.024Z,6.70
2019-04-04T23:35:28.006Z,6.17
2019-04-04T23:37:57.148Z,6.03
2019-04-04T23:40:26.260Z,7.58
2019-04-04T23:42:55.205Z,6.78
2019-04-04T23:45:24.281Z,7.05
2019-04-04T23:47:53.399Z,7.22
2019-04-04T23:50:22.590Z,6.72
2019-04-04T23:52:51.512Z,7.78
2019-04-04T23:55:20.548Z,7.03
2019-04-04T23:57:49.505Z,5.83
